createdAt,value
2022-07-30T00:00:07.049Z,20.15
2022-07-30T00:02:10.089Z,20.16
2022-07-30T00:04:12.618Z,20.18
2022-07-30T00:06:15.117Z,20.19
2022-07-30T00:08:17.678Z,20.18
2022-07-30T00:10:20.830Z,20.21
2022-07-30T00:12:23.388Z,20.23
2022-07-30T00:14:26.645Z,20.24
2022-07-30T00:16:29.319Z,20.24
2022-07-30T00:18:31.952Z,20.25
2022-07-30T00:20:34.782Z,20.28
2022-07-30T00:22:37.675Z,20.28
2022-07-30T00:24:40.264Z,20.28
2022-07-30T00:26:42.902Z,20.29
2022-07-30T00:28:45.542Z,20.31
2022-07-30T00:30:48.175Z,20.29
2022-07-30T00:32:57.545Z,20.29
2022-07-30T00:35:00.111Z,20.30
2022-07-30T00:37:03.322Z,20.27
2022-07-30T00:39:06.496Z,20.26
2022-07-30T00:41:09.048Z,20.30
2022-07-30T00:43:16.281Z,20.30
2022-07-30T00:45:19.055Z,20.27
2022-07-30T00:47:21.718Z,20.23
2022-07-30T00:49:24.996Z,20.21
2022-07-30T00:51:27.588Z,20.23
2022-07-30T00:53:30.221Z,20.23
2022-07-30T00:55:33.509Z,20.24
2022-07-30T00:57:36.170Z,20.28
2022-07-30T00:59:38.833Z,20.30
2022-07-30T01:01:41.519Z,20.32
2022-07-30T01:03:44.029Z,20.29
2022-07-30T01:05:47.036Z,20.26
2022-07-30T01:07:49.636Z,20.24
2022-07-30T01:09:52.173Z,20.23
2022-07-30T01:11:55.507Z,20.20
2022-07-30T01:13:58.091Z,20.18
2022-07-30T01:16:00.819Z,20.18
2022-07-30T01:18:07.270Z,20.16
2022-07-30T01:20:18.669Z,20.13
2022-07-30T01:22:30.503Z,20.10
2022-07-30T01:24:38.838Z,20.02
2022-07-30T01:26:41.542Z,19.95
2022-07-30T01:28:49.157Z,19.93
2022-07-30T01:30:53.168Z,19.88
2022-07-30T01:32:56.623Z,19.87
2022-07-30T01:34:59.863Z,19.85
2022-07-30T01:37:04.225Z,19.87
2022-07-30T01:39:07.046Z,19.87
2022-07-30T01:41:09.870Z,19.85
2022-07-30T01:43:13.104Z,19.85
2022-07-30T01:45:16.135Z,19.83
2022-07-30T01:47:20.081Z,19.83
2022-07-30T01:49:24.375Z,19.83
2022-07-30T01:51:33.338Z,19.84
2022-07-30T01:53:41.841Z,19.83
2022-07-30T01:55:44.730Z,19.84
2022-07-30T01:57:49.210Z,19.83
2022-07-30T01:59:55.119Z,19.79
2022-07-30T02:01:57.405Z,19.76
2022-07-30T02:04:00.706Z,19.72
2022-07-30T02:06:09.494Z,19.72
2022-07-30T02:08:24.637Z,19.71
2022-07-30T02:10:26.864Z,19.68
2022-07-30T02:12:30.869Z,19.65
2022-07-30T02:14:55.401Z,19.60
2022-07-30T02:16:59.624Z,19.56
2022-07-30T02:19:14.376Z,19.56
2022-07-30T02:21:18.447Z,19.54
2022-07-30T02:23:21.772Z,19.55
2022-07-30T02:25:24.194Z,19.55
2022-07-30T02:27:28.771Z,19.54
2022-07-30T02:29:34.910Z,19.52
2022-07-30T02:31:38.723Z,19.51
2022-07-30T02:33:48.762Z,19.50
2022-07-30T02:35:52.490Z,19.51
2022-07-30T02:37:54.943Z,19.53
2022-07-30T02:39:57.568Z,19.56
2022-07-30T02:41:59.862Z,19.57
2022-07-30T02:44:03.110Z,19.59
2022-07-30T02:46:06.323Z,19.61
2022-07-30T02:48:10.537Z,19.65
2022-07-30T02:50:13.011Z,19.71
2022-07-30T02:52:16.199Z,19.75
2022-07-30T02:54:19.620Z,19.79
2022-07-30T02:56:22.950Z,19.88
2022-07-30T02:58:26.125Z,19.94
2022-07-30T03:00:30.660Z,19.94
2022-07-30T03:02:33.896Z,20.02
2022-07-30T03:04:36.634Z,20.09
2022-07-30T03:06:40.535Z,20.15
2022-07-30T03:08:44.464Z,20.21
2022-07-30T03:10:47.582Z,20.32
2022-07-30T03:12:50.569Z,20.42
2022-07-30T03:14:53.086Z,20.54
2022-07-30T03:16:57.133Z,20.65
2022-07-30T03:19:02.596Z,20.71
2022-07-30T03:21:08.377Z,20.78
2022-07-30T03:23:11.709Z,20.80
2022-07-30T03:25:16.569Z,20.85
2022-07-30T03:27:19.503Z,20.93
2022-07-30T03:29:22.642Z,20.94
2022-07-30T03:31:25.066Z,20.99
2022-07-30T03:33:38.566Z,21.03
2022-07-30T03:35:42.927Z,21.03
2022-07-30T03:37:46.471Z,21.03
2022-07-30T03:39:48.838Z,21.00
2022-07-30T03:41:51.606Z,20.99
2022-07-30T03:43:53.999Z,20.97
2022-07-30T03:45:57.080Z,21.00
2022-07-30T03:47:59.558Z,21.03
2022-07-30T03:50:01.943Z,21.10
2022-07-30T03:52:06.079Z,21.20
2022-07-30T03:54:13.522Z,21.22
2022-07-30T03:56:16.234Z,21.30
2022-07-30T03:58:19.001Z,21.39
2022-07-30T04:00:21.360Z,21.39
2022-07-30T04:02:23.726Z,21.50
2022-07-30T04:04:26.306Z,21.58
2022-07-30T04:06:28.604Z,21.61
2022-07-30T04:08:31.034Z,21.71
2022-07-30T04:10:33.393Z,21.85
2022-07-30T04:12:35.816Z,21.97
2022-07-30T04:14:42.351Z,22.05
2022-07-30T04:16:47.881Z,22.09
2022-07-30T04:18:55.045Z,22.09
2022-07-30T04:20:58.373Z,22.11
2022-07-30T04:23:01.271Z,22.13
2022-07-30T04:25:05.184Z,22.22
2022-07-30T04:27:07.523Z,22.26
2022-07-30T04:29:13.841Z,22.30
2022-07-30T04:31:20.726Z,22.26
2022-07-30T04:33:23.093Z,22.31
2022-07-30T04:35:50.787Z,22.43
2022-07-30T04:37:51.596Z,22.46
2022-07-30T04:39:55.148Z,22.52
2022-07-30T04:41:57.422Z,22.52
2022-07-30T04:43:59.710Z,22.57
2022-07-30T04:46:02.210Z,22.56
2022-07-30T04:48:04.581Z,22.54
2022-07-30T04:50:07.717Z,22.51
2022-07-30T04:52:10.828Z,22.43
2022-07-30T04:54:16.144Z,22.48
2022-07-30T04:56:19.727Z,22.48
2022-07-30T04:58:22.466Z,22.50
2022-07-30T05:00:24.782Z,22.53
2022-07-30T05:02:29.574Z,22.64
2022-07-30T05:04:33.385Z,22.75
2022-07-30T05:06:36.827Z,22.79
2022-07-30T05:08:40.044Z,22.87
2022-07-30T05:10:43.318Z,22.92
2022-07-30T05:12:45.594Z,23.00
2022-07-30T05:14:48.385Z,23.06
2022-07-30T05:16:50.968Z,23.12
2022-07-30T05:18:53.242Z,23.17
2022-07-30T05:20:55.518Z,23.25
2022-07-30T05:22:57.829Z,23.38
2022-07-30T05:25:00.240Z,23.46
2022-07-30T05:27:02.926Z,23.54
2022-07-30T05:29:07.165Z,23.57
2022-07-30T05:31:10.457Z,23.58
2022-07-30T05:33:15.837Z,23.67
2022-07-30T05:35:18.358Z,23.76
2022-07-30T05:37:20.683Z,23.88
2022-07-30T05:39:23.031Z,24.02
2022-07-30T05:41:32.822Z,24.13
2022-07-30T05:43:35.498Z,24.14
2022-07-30T05:45:37.842Z,24.22
2022-07-30T05:47:40.127Z,24.15
2022-07-30T05:49:42.554Z,24.29
2022-07-30T05:51:50.483Z,24.39
2022-07-30T05:53:52.856Z,24.47
2022-07-30T05:55:55.114Z,24.54
2022-07-30T05:57:57.389Z,24.62
2022-07-30T06:00:00.988Z,24.63
2022-07-30T06:02:03.871Z,24.60
2022-07-30T06:04:06.274Z,24.63
2022-07-30T06:06:08.573Z,24.73
2022-07-30T06:08:11.134Z,24.78
2022-07-30T06:10:13.532Z,24.84
2022-07-30T06:12:15.919Z,24.81
2022-07-30T06:14:18.266Z,24.77
2022-07-30T06:16:20.603Z,24.77
2022-07-30T06:18:23.296Z,24.88
2022-07-30T06:20:25.828Z,25.03
2022-07-30T06:22:28.143Z,24.98
2022-07-30T06:24:30.405Z,24.96
2022-07-30T06:26:32.667Z,24.92
2022-07-30T06:28:39.160Z,24.87
2022-07-30T06:30:41.997Z,24.93
2022-07-30T06:32:45.818Z,25.06
2022-07-30T06:34:59.713Z,25.07
2022-07-30T06:37:06.107Z,25.14
2022-07-30T06:39:08.536Z,25.19
2022-07-30T06:41:11.183Z,25.17
2022-07-30T06:43:13.528Z,25.28
2022-07-30T06:45:15.815Z,25.40
2022-07-30T06:47:26.343Z,25.46
2022-07-30T06:49:31.300Z,25.47
2022-07-30T06:51:33.688Z,25.50
2022-07-30T06:53:42.502Z,25.57
2022-07-30T06:55:45.279Z,25.57
2022-07-30T06:57:47.500Z,25.64
2022-07-30T06:59:56.089Z,25.71
2022-07-30T07:01:59.883Z,25.68
2022-07-30T07:04:03.818Z,25.71
2022-07-30T07:06:06.279Z,25.81
2022-07-30T07:08:08.734Z,25.97
2022-07-30T07:10:11.221Z,26.02
2022-07-30T07:12:13.636Z,26.15
2022-07-30T07:14:15.949Z,26.34
2022-07-30T07:16:21.949Z,26.49
2022-07-30T07:18:24.325Z,26.53
2022-07-30T07:20:26.597Z,26.65
2022-07-30T07:22:29.302Z,26.85
2022-07-30T07:24:31.660Z,27.03
2022-07-30T07:26:33.999Z,27.10
2022-07-30T07:28:36.561Z,27.13
2022-07-30T07:30:39.064Z,27.08
2022-07-30T07:32:41.399Z,27.04
2022-07-30T07:34:43.698Z,27.11
2022-07-30T07:36:45.970Z,27.15
2022-07-30T07:38:48.333Z,27.22
2022-07-30T07:40:50.786Z,27.34
2022-07-30T07:42:53.333Z,27.27
2022-07-30T07:44:55.693Z,27.17
2022-07-30T07:46:58.044Z,27.08
2022-07-30T07:49:00.809Z,27.02
2022-07-30T07:51:03.593Z,27.02
2022-07-30T07:53:13.178Z,27.03
2022-07-30T07:55:15.588Z,27.04
2022-07-30T07:57:18.535Z,26.89
2022-07-30T07:59:23.190Z,26.74
2022-07-30T08:01:34.632Z,26.83
2022-07-30T08:03:36.937Z,26.86
2022-07-30T08:06:01.039Z,26.78
2022-07-30T08:08:01.611Z,26.74
2022-07-30T08:10:04.299Z,26.81
2022-07-30T08:12:06.682Z,26.77
2022-07-30T08:14:08.939Z,26.83
2022-07-30T08:16:12.607Z,26.90
2022-07-30T08:18:15.169Z,26.81
2022-07-30T08:20:17.514Z,26.74
2022-07-30T08:22:19.890Z,26.67
2022-07-30T08:24:24.141Z,26.69
2022-07-30T08:26:26.465Z,26.66
2022-07-30T08:28:35.912Z,26.75
2022-07-30T08:30:38.948Z,26.80
2022-07-30T08:32:41.267Z,26.79
2022-07-30T08:34:43.855Z,26.74
2022-07-30T08:36:46.147Z,26.91
2022-07-30T08:38:48.523Z,27.10
2022-07-30T08:40:51.062Z,27.27
2022-07-30T08:42:53.926Z,27.39
2022-07-30T08:44:56.434Z,27.53
2022-07-30T08:47:00.064Z,27.70
2022-07-30T08:49:06.461Z,27.86
2022-07-30T08:51:11.937Z,27.97
2022-07-30T08:53:14.520Z,28.00
2022-07-30T08:55:17.031Z,28.06
2022-07-30T08:57:19.616Z,28.14
2022-07-30T08:59:23.922Z,28.08
2022-07-30T09:01:26.322Z,27.95
2022-07-30T09:03:28.913Z,27.83
2022-07-30T09:05:31.392Z,27.82
2022-07-30T09:07:34.468Z,27.92
2022-07-30T09:09:36.759Z,28.13
2022-07-30T09:11:39.139Z,28.22
2022-07-30T09:13:42.571Z,28.37
2022-07-30T09:15:44.865Z,28.40
2022-07-30T09:17:48.344Z,28.50
2022-07-30T09:20:04.371Z,28.63
2022-07-30T09:22:07.109Z,28.73
2022-07-30T09:24:11.551Z,28.79
2022-07-30T09:26:14.195Z,28.74
2022-07-30T09:28:17.161Z,28.75
2022-07-30T09:30:19.537Z,28.91
2022-07-30T09:32:21.828Z,29.03
2022-07-30T09:34:25.210Z,29.21
2022-07-30T09:36:31.455Z,29.46
2022-07-30T09:38:42.800Z,29.71
2022-07-30T09:40:50.632Z,30.12
2022-07-30T09:43:04.491Z,30.29
2022-07-30T09:45:07.568Z,30.23
2022-07-30T09:47:09.889Z,30.23
2022-07-30T09:49:22.991Z,30.32
2022-07-30T09:51:56.745Z,30.19
2022-07-30T09:54:00.101Z,30.06
2022-07-30T09:56:22.856Z,29.83
2022-07-30T09:58:40.385Z,29.57
2022-07-30T10:00:48.785Z,29.29
2022-07-30T10:02:52.012Z,29.15
2022-07-30T10:04:54.520Z,29.11
2022-07-30T10:06:57.606Z,29.00
2022-07-30T10:08:59.890Z,28.97
2022-07-30T10:11:05.168Z,28.90
2022-07-30T10:13:15.987Z,28.95
2022-07-30T10:15:21.848Z,29.16
2022-07-30T10:17:25.251Z,29.28
2022-07-30T10:19:40.048Z,29.54
2022-07-30T10:21:44.479Z,29.56
2022-07-30T10:23:49.254Z,29.27
2022-07-30T10:25:56.266Z,29.12
2022-07-30T10:28:00.258Z,29.24
2022-07-30T10:30:05.890Z,28.83
2022-07-30T10:32:09.514Z,28.57
2022-07-30T10:34:15.527Z,28.74
2022-07-30T10:36:18.058Z,28.80
2022-07-30T10:38:22.283Z,28.66
2022-07-30T10:40:31.042Z,28.46
2022-07-30T10:42:33.362Z,28.33
2022-07-30T10:44:35.643Z,28.08
2022-07-30T10:46:49.806Z,28.24
2022-07-30T10:48:52.210Z,28.45
2022-07-30T10:50:55.673Z,28.50
2022-07-30T10:53:01.441Z,28.64
2022-07-30T10:55:12.490Z,28.80
2022-07-30T10:57:32.108Z,29.43
2022-07-30T10:59:59.861Z,29.92
2022-07-30T11:02:09.413Z,30.24
2022-07-30T11:04:22.367Z,30.07
2022-07-30T11:06:28.467Z,29.79
2022-07-30T11:08:42.647Z,29.82
2022-07-30T11:10:45.549Z,30.06
2022-07-30T11:12:52.763Z,30.39
2022-07-30T11:14:55.705Z,30.48
2022-07-30T11:16:59.027Z,30.47
2022-07-30T11:19:55.086Z,30.42
2022-07-30T11:21:26.568Z,30.63
2022-07-30T11:23:39.033Z,30.99
2022-07-30T11:25:50.982Z,31.49
2022-07-30T11:27:54.642Z,31.89
2022-07-30T11:29:57.323Z,31.91
2022-07-30T11:32:19.563Z,32.04
2022-07-30T11:34:25.678Z,32.08
2022-07-30T11:36:29.516Z,32.05
2022-07-30T11:38:50.781Z,32.15
2022-07-30T11:40:54.948Z,32.30
2022-07-30T11:43:35.022Z,32.51
2022-07-30T11:45:39.381Z,32.85
2022-07-30T11:47:47.753Z,32.97
2022-07-30T11:49:50.119Z,32.67
2022-07-30T11:51:52.535Z,32.56
2022-07-30T11:54:04.884Z,32.51
2022-07-30T11:56:07.419Z,32.85
2022-07-30T11:58:10.911Z,33.07
2022-07-30T12:00:13.464Z,33.17
2022-07-30T12:02:15.825Z,33.17
2022-07-30T12:04:18.205Z,33.14
2022-07-30T12:06:20.900Z,32.71
2022-07-30T12:08:32.795Z,32.29
2022-07-30T12:10:41.466Z,31.80
2022-07-30T12:12:44.271Z,31.54
2022-07-30T12:14:46.568Z,31.27
2022-07-30T12:16:50.207Z,31.06
2022-07-30T12:18:53.875Z,30.89
2022-07-30T12:21:02.992Z,30.73
2022-07-30T12:23:15.066Z,30.59
2022-07-30T12:25:24.174Z,30.22
2022-07-30T12:27:26.810Z,29.93
2022-07-30T12:29:29.239Z,29.70
2022-07-30T12:31:33.860Z,29.54
2022-07-30T12:33:42.132Z,29.38
2022-07-30T12:35:49.511Z,29.33
2022-07-30T12:38:10.414Z,29.27
2022-07-30T12:40:15.095Z,29.12
2022-07-30T12:42:19.089Z,29.11
2022-07-30T12:44:36.830Z,29.11
2022-07-30T12:46:41.217Z,29.05
2022-07-30T12:48:50.693Z,29.01
2022-07-30T12:51:04.309Z,28.98
2022-07-30T12:53:09.504Z,28.98
2022-07-30T12:55:12.839Z,28.94
2022-07-30T12:57:15.176Z,28.94
2022-07-30T12:59:22.069Z,28.90
2022-07-30T13:01:44.023Z,28.88
2022-07-30T13:03:46.771Z,28.93
2022-07-30T13:05:50.444Z,28.99
2022-07-30T13:08:00.329Z,28.94
2022-07-30T13:10:09.099Z,28.88
2022-07-30T13:12:12.502Z,28.82
2022-07-30T13:14:17.163Z,28.71
2022-07-30T13:16:20.103Z,28.55
2022-07-30T13:18:22.402Z,28.48
2022-07-30T13:20:24.835Z,28.43
2022-07-30T13:22:27.218Z,28.40
2022-07-30T13:24:29.694Z,28.42
2022-07-30T13:26:32.324Z,28.35
2022-07-30T13:28:35.492Z,28.22
2022-07-30T13:30:37.965Z,28.12
2022-07-30T13:32:40.532Z,27.93
2022-07-30T13:34:43.624Z,27.77
2022-07-30T13:36:46.099Z,27.68
2022-07-30T13:38:52.382Z,27.58
2022-07-30T13:40:59.054Z,27.50
2022-07-30T13:43:04.688Z,27.43
2022-07-30T13:45:07.575Z,27.34
2022-07-30T13:47:10.034Z,27.27
2022-07-30T13:49:13.333Z,27.22
2022-07-30T13:51:16.778Z,27.10
2022-07-30T13:53:19.062Z,27.08
2022-07-30T13:55:21.419Z,27.11
2022-07-30T13:57:24.025Z,26.83
2022-07-30T13:59:26.697Z,26.37
2022-07-30T14:01:29.533Z,26.02
2022-07-30T14:03:31.928Z,25.90
2022-07-30T14:05:36.136Z,25.70
2022-07-30T14:07:44.814Z,25.49
2022-07-30T14:09:51.408Z,25.43
2022-07-30T14:11:56.397Z,25.34
2022-07-30T14:13:58.663Z,25.19
2022-07-30T14:16:00.946Z,25.05
2022-07-30T14:18:06.176Z,24.93
2022-07-30T14:20:08.700Z,24.68
2022-07-30T14:22:11.085Z,24.51
2022-07-30T14:24:16.451Z,24.34
2022-07-30T14:26:18.800Z,24.24
2022-07-30T14:28:21.109Z,24.18
2022-07-30T14:30:24.804Z,24.11
2022-07-30T14:32:32.362Z,24.05
2022-07-30T14:34:35.270Z,24.00
2022-07-30T14:36:37.794Z,23.94
2022-07-30T14:38:40.123Z,23.92
2022-07-30T14:40:42.447Z,23.88
2022-07-30T14:42:44.751Z,23.94
2022-07-30T14:44:48.482Z,23.95
2022-07-30T14:46:52.171Z,23.92
2022-07-30T14:48:55.172Z,23.88
2022-07-30T14:51:14.337Z,23.87
2022-07-30T14:53:22.385Z,23.87
2022-07-30T14:55:25.382Z,23.89
2022-07-30T14:57:27.657Z,23.91
2022-07-30T15:00:09.793Z,23.73
2022-07-30T15:02:13.616Z,23.76
2022-07-30T15:04:16.438Z,23.79
2022-07-30T15:06:18.983Z,23.82
2022-07-30T15:08:21.861Z,23.92
2022-07-30T15:10:24.838Z,23.94
2022-07-30T15:12:27.915Z,23.97
2022-07-30T15:14:30.784Z,23.96
2022-07-30T15:16:33.561Z,23.98
2022-07-30T15:18:36.072Z,24.02
2022-07-30T15:20:38.644Z,24.05
2022-07-30T15:22:41.360Z,24.03
2022-07-30T15:24:43.890Z,24.04
2022-07-30T15:26:47.147Z,24.00
2022-07-30T15:28:49.812Z,24.01
2022-07-30T15:30:52.352Z,24.03
2022-07-30T15:32:54.888Z,24.00
2022-07-30T15:34:58.968Z,23.98
2022-07-30T15:37:02.849Z,23.95
2022-07-30T15:39:06.768Z,23.97
2022-07-30T15:41:13.440Z,23.99
2022-07-30T15:43:16.554Z,23.90
2022-07-30T15:45:20.348Z,23.94
2022-07-30T15:47:23.272Z,23.94
2022-07-30T15:49:26.968Z,23.90
2022-07-30T15:51:31.659Z,23.76
2022-07-30T15:53:34.255Z,23.79
2022-07-30T15:55:47.053Z,23.71
2022-07-30T15:57:50.437Z,23.67
2022-07-30T15:59:53.614Z,23.51
2022-07-30T16:01:56.491Z,23.43
2022-07-30T16:03:59.051Z,23.28
2022-07-30T16:06:01.697Z,23.11
2022-07-30T16:08:04.355Z,22.99
2022-07-30T16:10:07.330Z,22.83
2022-07-30T16:12:09.961Z,22.92
2022-07-30T16:14:12.622Z,22.85
2022-07-30T16:16:15.794Z,22.78
2022-07-30T16:18:18.375Z,22.70
2022-07-30T16:20:21.139Z,22.66
2022-07-30T16:22:24.323Z,22.66
2022-07-30T16:24:27.091Z,22.67
2022-07-30T16:26:30.923Z,22.68
2022-07-30T16:28:33.472Z,22.64
2022-07-30T16:30:50.718Z,22.59
2022-07-30T16:33:00.175Z,22.51
2022-07-30T16:35:02.805Z,22.49
2022-07-30T16:37:06.507Z,22.47
2022-07-30T16:39:09.435Z,22.43
2022-07-30T16:41:13.573Z,22.37
2022-07-30T16:43:19.543Z,22.34
2022-07-30T16:45:22.963Z,22.32
2022-07-30T16:47:25.559Z,22.28
2022-07-30T16:49:28.797Z,22.21
2022-07-30T16:51:31.903Z,22.15
2022-07-30T16:53:34.617Z,22.05
2022-07-30T16:55:37.251Z,22.05
2022-07-30T16:57:39.830Z,22.02
2022-07-30T16:59:43.745Z,21.98
2022-07-30T17:01:47.529Z,21.99
2022-07-30T17:03:50.123Z,21.98
2022-07-30T17:05:53.739Z,21.95
2022-07-30T17:07:56.643Z,21.97
2022-07-30T17:09:59.255Z,21.96
2022-07-30T17:12:02.067Z,22.00
2022-07-30T17:14:06.518Z,22.03
2022-07-30T17:16:09.529Z,22.01
2022-07-30T17:18:12.510Z,22.00
2022-07-30T17:20:15.646Z,21.96
2022-07-30T17:22:18.408Z,21.94
2022-07-30T17:24:21.252Z,21.93
2022-07-30T17:26:23.903Z,21.95
2022-07-30T17:28:27.005Z,21.95
2022-07-30T17:30:30.533Z,21.90
2022-07-30T17:32:33.319Z,21.95
2022-07-30T17:34:35.932Z,21.95
2022-07-30T17:36:39.535Z,21.94
2022-07-30T17:38:42.307Z,21.90
2022-07-30T17:40:44.987Z,21.91
2022-07-30T17:42:47.728Z,21.89
2022-07-30T17:44:50.391Z,21.87
2022-07-30T17:46:53.627Z,21.80
2022-07-30T17:48:56.262Z,21.78
2022-07-30T17:50:58.892Z,21.80
2022-07-30T17:53:06.196Z,21.78
2022-07-30T17:55:11.406Z,21.73
2022-07-30T17:57:15.453Z,21.71
2022-07-30T17:59:18.141Z,21.70
2022-07-30T18:01:20.920Z,21.68
2022-07-30T18:03:23.615Z,21.63
2022-07-30T18:05:27.611Z,21.57
2022-07-30T18:07:30.453Z,21.51
2022-07-30T18:09:39.634Z,21.43
2022-07-30T18:11:43.183Z,21.41
2022-07-30T18:13:45.882Z,21.38
2022-07-30T18:15:48.990Z,21.33
2022-07-30T18:17:51.665Z,21.28
2022-07-30T18:19:54.346Z,21.24
2022-07-30T18:21:57.524Z,21.24
2022-07-30T18:24:00.222Z,21.22
2022-07-30T18:26:03.047Z,21.20
2022-07-30T18:28:06.004Z,21.19
2022-07-30T18:30:09.162Z,21.16
2022-07-30T18:32:11.860Z,21.11
2022-07-30T18:34:14.632Z,21.09
2022-07-30T18:36:17.227Z,21.09
2022-07-30T18:38:20.062Z,21.10
2022-07-30T18:40:24.233Z,21.09
2022-07-30T18:42:27.184Z,21.07
2022-07-30T18:44:29.833Z,21.05
2022-07-30T18:46:32.457Z,21.06
2022-07-30T18:48:35.959Z,21.03
2022-07-30T18:50:38.762Z,21.02
2022-07-30T18:52:41.753Z,21.01
2022-07-30T18:54:44.318Z,21.00
2022-07-30T18:56:46.978Z,20.99
2022-07-30T18:58:49.560Z,20.98
2022-07-30T19:00:52.182Z,20.97
2022-07-30T19:02:54.893Z,20.95
2022-07-30T19:04:58.606Z,20.93
2022-07-30T19:07:01.350Z,20.87
2022-07-30T19:11:07.341Z,20.87
2022-07-30T19:13:10.157Z,20.85
2022-07-30T19:15:14.274Z,20.86
2022-07-30T19:17:16.907Z,20.84
2022-07-30T19:19:20.091Z,20.85
2022-07-30T19:21:22.963Z,20.84
2022-07-30T19:23:25.536Z,20.82
2022-07-30T19:25:29.657Z,20.79
2022-07-30T19:27:32.267Z,20.79
2022-07-30T19:29:34.818Z,20.77
2022-07-30T19:31:37.506Z,20.75
2022-07-30T19:33:41.419Z,20.67
2022-07-30T19:35:44.099Z,20.69
2022-07-30T19:37:47.132Z,20.66
2022-07-30T19:40:05.355Z,20.64
2022-07-30T19:42:09.320Z,20.61
2022-07-30T19:44:18.563Z,20.60
2022-07-30T19:46:21.642Z,20.57
2022-07-30T19:48:29.262Z,20.54
2022-07-30T19:50:35.839Z,20.52
2022-07-30T19:52:40.571Z,20.51
2022-07-30T19:54:54.191Z,20.49
2022-07-30T19:56:56.734Z,20.48
2022-07-30T19:59:00.594Z,20.47
2022-07-30T20:01:17.331Z,20.43
2022-07-30T20:03:25.561Z,20.42
2022-07-30T20:05:31.950Z,20.38
2022-07-30T20:07:54.476Z,20.32
2022-07-30T20:09:58.440Z,20.32
2022-07-30T20:12:02.378Z,20.28
2022-07-30T20:14:05.602Z,20.27
2022-07-30T20:16:12.231Z,20.26
2022-07-30T20:18:14.913Z,20.23
2022-07-30T20:20:17.577Z,20.19
2022-07-30T20:22:29.204Z,20.16
2022-07-30T20:24:32.299Z,20.14
2022-07-30T20:26:35.002Z,20.11
2022-07-30T20:28:37.556Z,20.11
2022-07-30T20:30:40.304Z,20.06
2022-07-30T20:32:46.909Z,20.04
2022-07-30T20:34:49.669Z,20.03
2022-07-30T20:36:52.242Z,20.00
2022-07-30T20:38:56.615Z,19.99
2022-07-30T20:40:59.142Z,19.96
2022-07-30T20:43:06.171Z,19.92
2022-07-30T20:45:11.004Z,19.89
2022-07-30T20:47:37.592Z,19.88
2022-07-30T20:49:41.243Z,19.82
2022-07-30T20:51:45.029Z,19.81
2022-07-30T20:53:52.932Z,19.81
2022-07-30T20:55:55.492Z,19.81
2022-07-30T20:58:08.903Z,19.83
2022-07-30T21:00:20.202Z,19.81
2022-07-30T21:04:46.502Z,19.80
2022-07-30T21:06:50.479Z,19.80
2022-07-30T21:08:53.188Z,19.77
2022-07-30T21:10:57.858Z,19.75
2022-07-30T21:13:07.663Z,19.72
2022-07-30T21:15:15.772Z,19.69
2022-07-30T21:17:26.433Z,19.69
2022-07-30T21:19:31.024Z,19.64
2022-07-30T21:23:59.041Z,19.61
2022-07-30T21:26:07.097Z,19.58
2022-07-30T21:28:18.457Z,19.55
2022-07-30T21:30:31.286Z,19.53
2022-07-30T21:32:35.427Z,19.53
2022-07-30T21:34:40.435Z,19.52
2022-07-30T21:36:44.882Z,19.52
2022-07-30T21:38:47.526Z,19.53
2022-07-30T21:40:50.393Z,19.53
2022-07-30T21:42:52.934Z,19.53
2022-07-30T21:44:55.525Z,19.55
2022-07-30T21:46:58.162Z,19.54
2022-07-30T21:49:00.826Z,19.56
2022-07-30T21:51:03.934Z,19.55
2022-07-30T21:53:06.497Z,19.55
2022-07-30T21:55:13.221Z,19.53
2022-07-30T21:57:26.447Z,19.53
2022-07-30T21:59:29.467Z,19.52
2022-07-30T22:01:33.072Z,19.50
2022-07-30T22:04:03.680Z,19.47
2022-07-30T22:06:04.385Z,19.43
2022-07-30T22:08:08.917Z,19.39
2022-07-30T22:10:13.043Z,19.37
2022-07-30T22:12:25.917Z,19.35
2022-07-30T22:14:31.726Z,19.30
2022-07-30T22:16:34.458Z,19.27
2022-07-30T22:18:37.127Z,19.26
2022-07-30T22:20:41.824Z,19.23
2022-07-30T22:22:44.778Z,19.22
2022-07-30T22:24:48.100Z,19.18
2022-07-30T22:26:51.010Z,19.16
2022-07-30T22:28:54.282Z,19.13
2022-07-30T22:30:57.240Z,19.09
2022-07-30T22:33:20.139Z,19.10
2022-07-30T22:35:32.352Z,19.07
2022-07-30T22:37:36.744Z,19.07
2022-07-30T22:39:50.574Z,19.05
2022-07-30T22:41:54.852Z,19.02
2022-07-30T22:43:57.720Z,18.99
2022-07-30T22:46:01.071Z,18.99
2022-07-30T22:48:10.282Z,18.98
2022-07-30T22:50:14.894Z,18.98
2022-07-30T22:52:21.968Z,18.96
2022-07-30T22:54:29.247Z,19.01
2022-07-30T22:56:32.429Z,19.04
2022-07-30T22:58:35.040Z,19.06
2022-07-30T23:00:37.620Z,19.07
2022-07-30T23:02:43.016Z,19.07
2022-07-30T23:04:45.622Z,19.11
2022-07-30T23:06:48.601Z,19.13
2022-07-30T23:08:51.167Z,19.16
2022-07-30T23:10:53.987Z,19.15
2022-07-30T23:12:26.729Z,19.80
2022-07-30T23:12:27.128Z,19.63
2022-07-30T23:12:56.921Z,19.13
2022-07-30T23:14:59.725Z,19.12
2022-07-30T23:17:02.490Z,19.11
2022-07-30T23:19:06.783Z,19.11
2022-07-30T23:21:10.115Z,19.11
2022-07-30T23:23:12.704Z,19.12
2022-07-30T23:25:15.790Z,19.11
2022-07-30T23:27:18.459Z,19.09
2022-07-30T23:29:21.079Z,19.09
2022-07-30T23:31:26.790Z,19.08
2022-07-30T23:33:30.785Z,19.08
2022-07-30T23:35:33.360Z,19.08
2022-07-30T23:37:47.619Z,19.06
2022-07-30T23:39:51.561Z,19.06
2022-07-30T23:41:54.247Z,19.07
2022-07-30T23:43:56.838Z,19.04
2022-07-30T23:45:59.554Z,19.01
2022-07-30T23:48:03.433Z,19.03
2022-07-30T23:50:06.817Z,19.00
2022-07-30T23:52:09.858Z,19.01
2022-07-30T23:54:12.432Z,19.01
2022-07-30T23:56:15.981Z,19.01
2022-07-30T23:58:19.116Z,19.01
